createdAt,value
2023-02-20T00:01:38.807Z,7.37
2023-02-20T00:04:06.266Z,8.13
2023-02-20T00:06:33.664Z,6.00
2023-02-20T00:09:01.113Z,7.13
2023-02-20T00:11:28.600Z,6.50
2023-02-20T00:13:56.063Z,7.13
2023-02-20T00:16:23.483Z,6.63
2023-02-20T00:18:50.907Z,6.67
2023-02-20T00:21:18.531Z,6.37
2023-02-20T00:23:45.936Z,5.87
2023-02-20T00:26:15.210Z,7.40
2023-02-20T00:28:44.459Z,6.23
2023-02-20T00:31:18.813Z,6.23
2023-02-20T00:33:46.582Z,6.27
2023-02-20T00:36:21.025Z,6.57
2023-02-20T00:38:48.471Z,5.77
2023-02-20T00:41:18.001Z,5.23
2023-02-20T00:43:45.726Z,6.10
2023-02-20T00:46:15.622Z,6.33
2023-02-20T00:48:43.603Z,4.57
2023-02-20T00:51:11.585Z,6.97
2023-02-20T00:53:39.014Z,5.47
2023-02-20T00:56:06.857Z,5.50
2023-02-20T00:58:34.380Z,5.70
2023-02-20T01:01:01.810Z,5.70
2023-02-20T01:03:29.251Z,7.70
2023-02-20T01:05:56.820Z,7.00
2023-02-20T01:08:24.371Z,6.57
2023-02-20T01:10:51.905Z,7.37
2023-02-20T01:13:19.881Z,6.90
2023-02-20T01:15:47.449Z,7.20
2023-02-20T01:18:15.040Z,6.77
2023-02-20T01:20:42.635Z,7.17
2023-02-20T01:23:10.446Z,6.60
2023-02-20T01:25:37.915Z,6.23
2023-02-20T01:28:05.672Z,6.67
2023-02-20T01:30:33.155Z,8.17
2023-02-20T01:33:00.631Z,5.57
2023-02-20T01:35:32.114Z,6.03
2023-02-20T01:38:00.524Z,7.30
2023-02-20T01:40:28.714Z,6.47
2023-02-20T01:42:56.222Z,6.07
2023-02-20T01:45:23.500Z,7.03
2023-02-20T01:47:55.454Z,4.63
2023-02-20T01:50:42.148Z,6.30
2023-02-20T01:53:14.715Z,7.30
2023-02-20T01:56:13.577Z,7.63
2023-02-20T01:58:46.184Z,7.00
2023-02-20T02:01:13.744Z,5.20
2023-02-20T02:03:45.084Z,6.40
2023-02-20T02:06:15.615Z,7.27
2023-02-20T02:08:44.921Z,6.80
2023-02-20T02:11:17.396Z,7.53
2023-02-20T02:13:45.328Z,8.70
2023-02-20T02:16:48.775Z,6.33
2023-02-20T02:19:43.975Z,7.17
2023-02-20T02:23:03.597Z,6.73
2023-02-20T02:25:55.791Z,6.33
2023-02-20T02:28:47.728Z,6.27
2023-02-20T02:31:52.979Z,6.83
2023-02-20T02:35:17.746Z,7.33
2023-02-20T02:38:07.471Z,4.33
2023-02-20T02:41:11.499Z,6.10
2023-02-20T02:44:07.488Z,5.97
2023-02-20T02:46:56.031Z,8.13
2023-02-20T02:49:53.946Z,5.63
2023-02-20T02:52:43.769Z,3.83
2023-02-20T02:55:11.872Z,5.40
2023-02-20T02:57:39.333Z,6.30
2023-02-20T03:00:28.838Z,4.07
2023-02-20T03:03:14.150Z,5.77
2023-02-20T03:06:06.345Z,4.93
2023-02-20T03:09:00.310Z,5.83
2023-02-20T03:11:31.335Z,8.23
2023-02-20T03:14:30.916Z,5.90
2023-02-20T03:17:07.632Z,6.47
2023-02-20T03:19:44.838Z,4.90
2023-02-20T03:22:27.622Z,7.60
2023-02-20T03:25:08.356Z,5.53
2023-02-20T03:27:50.530Z,4.30
2023-02-20T03:30:36.595Z,4.07
2023-02-20T03:33:53.826Z,4.07
2023-02-20T03:36:54.182Z,5.37
2023-02-20T03:39:47.449Z,4.40
2023-02-20T03:42:37.821Z,5.93
2023-02-20T03:45:06.988Z,6.40
2023-02-20T03:47:40.750Z,6.23
2023-02-20T03:50:28.798Z,5.33
2023-02-20T03:52:56.703Z,9.03
2023-02-20T03:55:24.800Z,6.27
2023-02-20T03:57:58.226Z,6.97
2023-02-20T04:00:32.131Z,7.30
2023-02-20T04:03:08.500Z,5.07
2023-02-20T04:05:40.050Z,4.00
2023-02-20T04:08:18.242Z,6.53
2023-02-20T04:11:01.868Z,8.77
2023-02-20T04:13:30.426Z,6.87
2023-02-20T04:16:01.835Z,6.83
2023-02-20T04:18:30.799Z,4.97
2023-02-20T04:21:01.213Z,7.63
2023-02-20T04:23:31.483Z,5.47
2023-02-20T04:26:08.806Z,6.30
2023-02-20T04:28:36.553Z,6.80
2023-02-20T04:31:04.182Z,7.13
2023-02-20T04:33:31.689Z,6.00
2023-02-20T04:35:59.203Z,6.43
2023-02-20T04:38:26.668Z,6.13
2023-02-20T04:40:54.110Z,5.17
2023-02-20T04:43:21.631Z,8.77
2023-02-20T04:45:49.499Z,11.73
2023-02-20T04:48:16.974Z,7.63
2023-02-20T04:50:44.432Z,7.03
2023-02-20T04:53:11.947Z,6.57
2023-02-20T04:55:39.346Z,5.50
2023-02-20T04:58:06.739Z,6.90
2023-02-20T05:00:34.164Z,7.60
2023-02-20T05:03:01.715Z,6.00
2023-02-20T05:05:30.031Z,5.73
2023-02-20T05:08:04.699Z,7.43
2023-02-20T05:10:34.167Z,6.00
2023-02-20T05:13:02.341Z,7.53
2023-02-20T05:15:31.945Z,6.13
2023-02-20T05:17:59.460Z,5.33
2023-02-20T05:20:46.937Z,4.97
2023-02-20T05:23:14.430Z,5.10
2023-02-20T05:25:42.085Z,3.93
2023-02-20T05:28:09.679Z,3.73
2023-02-20T05:30:37.280Z,4.20
2023-02-20T05:33:04.834Z,7.13
2023-02-20T05:35:33.174Z,5.43
2023-02-20T05:38:00.549Z,5.73
2023-02-20T05:40:27.960Z,3.93
2023-02-20T05:42:55.418Z,3.37
2023-02-20T05:45:22.863Z,4.27
2023-02-20T05:47:50.292Z,4.43
2023-02-20T05:50:18.112Z,4.33
2023-02-20T05:52:45.501Z,4.50
2023-02-20T05:55:12.974Z,6.13
2023-02-20T05:57:40.419Z,5.90
2023-02-20T06:00:08.823Z,5.63
2023-02-20T06:02:36.340Z,5.83
2023-02-20T06:05:05.829Z,7.63
2023-02-20T06:07:33.989Z,10.73
2023-02-20T06:10:01.685Z,9.00
2023-02-20T06:12:29.078Z,8.07
2023-02-20T06:14:56.475Z,6.70
2023-02-20T06:17:23.973Z,7.47
2023-02-20T06:19:51.428Z,7.00
2023-02-20T06:22:19.158Z,6.03
2023-02-20T06:24:47.812Z,6.13
2023-02-20T06:27:17.562Z,6.90
2023-02-20T06:29:48.081Z,8.43
2023-02-20T06:32:17.235Z,7.47
2023-02-20T06:34:45.761Z,7.33
2023-02-20T06:37:13.720Z,6.90
2023-02-20T06:39:43.236Z,8.13
2023-02-20T06:42:10.597Z,7.47
2023-02-20T06:44:38.550Z,7.23
2023-02-20T06:47:09.198Z,6.47
2023-02-20T06:49:37.912Z,6.30
2023-02-20T06:52:09.299Z,7.27
2023-02-20T06:54:36.977Z,5.93
2023-02-20T06:57:04.883Z,6.90
2023-02-20T06:59:32.387Z,5.80
2023-02-20T07:01:59.874Z,7.33
2023-02-20T07:04:27.879Z,9.67
2023-02-20T07:06:56.450Z,6.77
2023-02-20T07:09:25.405Z,9.70
2023-02-20T07:11:54.043Z,8.53
2023-02-20T07:14:22.582Z,6.37
2023-02-20T07:16:50.203Z,6.87
2023-02-20T07:19:17.654Z,8.60
2023-02-20T07:21:47.410Z,7.23
2023-02-20T07:24:15.177Z,6.50
2023-02-20T07:26:42.740Z,8.83
2023-02-20T07:29:12.414Z,6.83
2023-02-20T07:31:39.935Z,6.70
2023-02-20T07:34:08.368Z,6.37
2023-02-20T07:36:36.489Z,9.47
2023-02-20T07:39:06.831Z,6.93
2023-02-20T07:41:37.389Z,8.07
2023-02-20T07:44:05.811Z,6.73
2023-02-20T07:46:34.352Z,5.30
2023-02-20T07:49:06.115Z,7.93
2023-02-20T07:51:33.854Z,7.77
2023-02-20T07:54:02.055Z,6.70
2023-02-20T07:56:30.392Z,8.00
2023-02-20T07:59:00.419Z,6.93
2023-02-20T08:01:28.474Z,11.07
2023-02-20T08:03:55.890Z,6.00
2023-02-20T08:06:23.314Z,7.20
2023-02-20T08:08:52.328Z,7.13
2023-02-20T08:11:22.783Z,7.17
2023-02-20T08:13:50.898Z,11.60
2023-02-20T08:16:18.327Z,9.03
2023-02-20T08:18:45.801Z,8.73
2023-02-20T08:21:13.317Z,9.30
2023-02-20T08:23:40.707Z,7.47
2023-02-20T08:26:08.217Z,7.93
2023-02-20T08:28:35.735Z,7.30
2023-02-20T08:31:03.753Z,6.83
2023-02-20T08:33:31.347Z,6.50
2023-02-20T08:35:58.924Z,6.70
2023-02-20T08:38:34.750Z,7.07
2023-02-20T08:41:08.343Z,7.67
2023-02-20T08:43:37.787Z,6.00
2023-02-20T08:46:08.412Z,5.53
2023-02-20T08:48:36.722Z,5.97
2023-02-20T08:51:05.842Z,5.87
2023-02-20T08:53:34.173Z,5.50
2023-02-20T08:56:01.745Z,6.23
2023-02-20T08:58:29.375Z,7.67
2023-02-20T09:00:56.851Z,4.87
2023-02-20T09:03:24.590Z,5.80
2023-02-20T09:05:52.087Z,7.33
2023-02-20T09:08:19.653Z,5.77
2023-02-20T09:10:47.639Z,5.27
2023-02-20T09:13:15.373Z,5.90
2023-02-20T09:15:42.772Z,5.70
2023-02-20T09:18:14.632Z,5.57
2023-02-20T09:20:42.711Z,6.27
2023-02-20T09:23:10.797Z,5.77
2023-02-20T09:25:38.329Z,5.90
2023-02-20T09:28:06.053Z,6.30
2023-02-20T09:30:33.712Z,5.73
2023-02-20T09:33:01.235Z,7.13
2023-02-20T09:35:31.233Z,6.57
2023-02-20T09:37:58.927Z,6.20
2023-02-20T09:40:30.317Z,5.27
2023-02-20T09:43:15.667Z,6.10
2023-02-20T09:46:13.935Z,5.37
2023-02-20T09:48:52.492Z,5.50
2023-02-20T09:51:37.541Z,6.27
2023-02-20T09:54:36.841Z,5.90
2023-02-20T09:57:17.847Z,6.17
2023-02-20T10:00:06.472Z,5.90
2023-02-20T10:02:43.171Z,7.10
2023-02-20T10:05:25.900Z,6.33
2023-02-20T10:07:53.825Z,5.53
2023-02-20T10:10:29.209Z,5.23
2023-02-20T10:14:10.492Z,5.27
2023-02-20T10:17:02.867Z,5.97
2023-02-20T10:20:12.361Z,5.60
2023-02-20T10:23:02.862Z,5.13
2023-02-20T10:25:36.325Z,7.83
2023-02-20T10:28:16.350Z,8.63
2023-02-20T10:30:55.182Z,10.10
2023-02-20T10:33:46.129Z,10.43
2023-02-20T10:36:28.775Z,8.90
2023-02-20T10:39:07.694Z,5.27
2023-02-20T10:41:51.310Z,5.30
2023-02-20T10:44:27.577Z,4.83
2023-02-20T10:47:11.276Z,6.00
2023-02-20T10:50:24.569Z,4.73
2023-02-20T10:53:20.493Z,4.33
2023-02-20T10:56:04.615Z,5.23
2023-02-20T10:58:42.544Z,4.30
2023-02-20T11:01:15.515Z,3.83
2023-02-20T11:04:10.229Z,4.27
2023-02-20T11:06:44.847Z,3.80
2023-02-20T11:09:13.481Z,2.87
2023-02-20T11:11:45.281Z,3.43
2023-02-20T11:14:40.011Z,3.03
2023-02-20T11:17:16.337Z,2.70
2023-02-20T11:19:53.688Z,2.70
2023-02-20T11:22:52.879Z,2.90
2023-02-20T11:25:35.771Z,3.30
2023-02-20T11:28:25.280Z,3.87
2023-02-20T11:31:05.008Z,2.67
2023-02-20T11:33:48.250Z,3.77
2023-02-20T11:36:21.586Z,5.40
2023-02-20T11:39:00.609Z,2.90
2023-02-20T11:41:39.662Z,3.00
2023-02-20T11:44:15.043Z,2.73
2023-02-20T11:46:44.209Z,2.47
2023-02-20T11:49:27.223Z,2.50
2023-02-20T11:52:26.974Z,3.40
2023-02-20T11:55:23.880Z,2.17
2023-02-20T11:57:52.258Z,2.40
2023-02-20T12:00:30.546Z,2.10
2023-02-20T12:03:09.918Z,1.90
2023-02-20T12:05:49.479Z,3.00
2023-02-20T12:08:48.886Z,3.87
2023-02-20T12:11:26.262Z,2.73
2023-02-20T12:13:59.010Z,2.90
2023-02-20T12:16:50.838Z,2.50
2023-02-20T12:20:04.939Z,2.00
2023-02-20T12:22:45.992Z,2.00
2023-02-20T12:25:34.872Z,2.10
2023-02-20T12:28:20.419Z,1.97
2023-02-20T12:30:54.605Z,3.70
2023-02-20T12:33:48.985Z,2.43
2023-02-20T12:36:47.710Z,3.70
2023-02-20T12:39:15.095Z,2.47
2023-02-20T12:42:39.235Z,3.57
2023-02-20T12:45:47.746Z,1.43
2023-02-20T12:48:32.219Z,1.63
2023-02-20T12:51:22.666Z,2.00
2023-02-20T12:54:40.080Z,2.37
2023-02-20T12:57:23.430Z,2.00
2023-02-20T13:00:02.349Z,1.83
2023-02-20T13:02:43.969Z,1.53
2023-02-20T13:05:21.025Z,1.43
2023-02-20T13:07:57.311Z,1.33
2023-02-20T13:10:36.954Z,2.20
2023-02-20T13:13:04.533Z,1.93
2023-02-20T13:15:34.537Z,2.33
2023-02-20T13:18:27.730Z,2.37
2023-02-20T13:21:11.219Z,1.53
2023-02-20T13:23:41.971Z,1.83
2023-02-20T13:26:36.073Z,1.50
2023-02-20T13:29:26.007Z,1.97
2023-02-20T13:31:53.445Z,1.90
2023-02-20T13:34:23.543Z,3.20
2023-02-20T13:36:51.359Z,1.80
2023-02-20T13:39:38.017Z,1.77
2023-02-20T13:42:28.095Z,1.50
2023-02-20T13:44:57.299Z,2.60
2023-02-20T13:47:38.335Z,1.47
2023-02-20T13:50:31.577Z,1.73
2023-02-20T13:53:02.635Z,3.20
2023-02-20T13:55:31.020Z,2.10
2023-02-20T13:58:08.629Z,2.90
2023-02-20T14:00:51.651Z,4.30
2023-02-20T14:03:29.183Z,2.40
2023-02-20T14:06:16.615Z,2.50
2023-02-20T14:08:49.646Z,2.43
2023-02-20T14:11:34.389Z,3.47
2023-02-20T14:14:23.585Z,2.73
2023-02-20T14:16:51.126Z,2.60
2023-02-20T14:19:30.241Z,2.13
2023-02-20T14:22:24.104Z,1.30
2023-02-20T14:25:19.242Z,3.67
2023-02-20T14:27:49.475Z,2.93
2023-02-20T14:30:21.112Z,3.30
2023-02-20T14:32:58.508Z,1.33
2023-02-20T14:36:05.994Z,2.27
2023-02-20T14:38:54.841Z,2.63
2023-02-20T14:41:24.805Z,2.03
2023-02-20T14:44:04.759Z,2.30
2023-02-20T14:46:35.752Z,2.57
2023-02-20T14:49:13.239Z,2.03
2023-02-20T14:51:41.393Z,2.33
2023-02-20T14:54:22.527Z,1.53
2023-02-20T14:56:52.966Z,1.70
2023-02-20T14:59:28.814Z,4.40
2023-02-20T15:02:01.251Z,4.17
2023-02-20T15:04:29.113Z,1.97
2023-02-20T15:07:05.036Z,2.13
2023-02-20T15:09:39.044Z,1.87
2023-02-20T15:12:09.691Z,1.80
2023-02-20T15:14:43.643Z,2.03
2023-02-20T15:17:22.183Z,2.00
2023-02-20T15:19:50.860Z,1.77
2023-02-20T15:22:32.839Z,2.07
2023-02-20T15:25:35.025Z,3.07
2023-02-20T15:28:25.568Z,3.17
2023-02-20T15:31:10.921Z,2.00
2023-02-20T15:33:54.000Z,2.60
2023-02-20T15:36:26.570Z,1.60
2023-02-20T15:38:56.513Z,2.20
2023-02-20T15:41:24.589Z,2.07
2023-02-20T15:43:52.172Z,1.57
2023-02-20T15:46:20.876Z,1.17
2023-02-20T15:48:48.666Z,2.20
2023-02-20T15:51:22.244Z,1.27
2023-02-20T15:53:53.648Z,1.83
2023-02-20T15:56:21.202Z,1.40
2023-02-20T15:58:50.288Z,2.50
2023-02-20T16:01:17.896Z,2.80
2023-02-20T16:03:53.037Z,1.80
2023-02-20T16:06:23.300Z,1.07
2023-02-20T16:08:52.643Z,1.20
2023-02-20T16:11:30.422Z,1.13
2023-02-20T16:14:01.223Z,1.50
2023-02-20T16:16:35.763Z,2.13
2023-02-20T16:19:15.099Z,2.37
2023-02-20T16:21:56.900Z,2.23
2023-02-20T16:24:26.302Z,1.23
2023-02-20T16:26:54.329Z,1.70
2023-02-20T16:29:33.590Z,1.50
2023-02-20T16:32:01.040Z,5.17
2023-02-20T16:34:33.657Z,1.30
2023-02-20T16:37:01.793Z,1.40
2023-02-20T16:39:29.457Z,1.97
2023-02-20T16:41:58.861Z,1.73
2023-02-20T16:44:44.750Z,2.97
2023-02-20T16:47:20.519Z,4.53
2023-02-20T16:49:51.854Z,1.77
2023-02-20T16:52:24.210Z,5.40
2023-02-20T16:54:53.452Z,2.97
2023-02-20T16:57:23.924Z,3.80
2023-02-20T16:59:58.889Z,3.87
2023-02-20T17:02:31.835Z,1.80
2023-02-20T17:05:00.370Z,1.77
2023-02-20T17:07:28.249Z,2.17
2023-02-20T17:09:55.775Z,1.93
2023-02-20T17:12:24.820Z,3.30
2023-02-20T17:14:58.028Z,2.53
2023-02-20T17:17:25.543Z,5.00
2023-02-20T17:19:53.241Z,3.13
2023-02-20T17:22:22.184Z,3.63
2023-02-20T17:24:50.044Z,2.83
2023-02-20T17:27:17.597Z,2.37
2023-02-20T17:29:46.341Z,3.10
2023-02-20T17:32:15.183Z,4.13
2023-02-20T17:34:43.383Z,2.10
2023-02-20T17:37:10.951Z,2.60
2023-02-20T17:39:39.426Z,2.60
2023-02-20T17:42:07.477Z,3.00
2023-02-20T17:44:35.038Z,3.00
2023-02-20T17:47:02.813Z,2.10
2023-02-20T17:49:30.576Z,2.20
2023-02-20T17:52:00.278Z,2.63
2023-02-20T17:54:32.092Z,4.00
2023-02-20T17:57:00.487Z,3.50
2023-02-20T17:59:28.579Z,3.10
2023-02-20T18:01:56.156Z,2.00
2023-02-20T18:04:25.586Z,5.93
2023-02-20T18:06:54.522Z,3.73
2023-02-20T18:09:22.134Z,4.90
2023-02-20T18:11:49.587Z,3.03
2023-02-20T18:14:19.383Z,3.30
2023-02-20T18:16:48.413Z,2.53
2023-02-20T18:19:18.013Z,3.20
2023-02-20T18:21:49.573Z,2.60
2023-02-20T18:24:26.089Z,3.37
2023-02-20T18:26:54.888Z,2.37
2023-02-20T18:29:22.707Z,3.47
2023-02-20T18:31:50.623Z,2.73
2023-02-20T18:34:19.301Z,2.63
2023-02-20T18:36:46.712Z,3.23
2023-02-20T18:39:15.079Z,3.57
2023-02-20T18:41:49.111Z,3.57
2023-02-20T18:44:16.745Z,2.03
2023-02-20T18:46:44.225Z,4.83
2023-02-20T18:49:11.660Z,2.63
2023-02-20T18:51:42.242Z,3.37
2023-02-20T18:54:17.290Z,3.53
2023-02-20T18:56:50.136Z,2.50
2023-02-20T18:59:18.914Z,2.27
2023-02-20T19:01:46.822Z,4.13
2023-02-20T19:04:15.450Z,2.90
2023-02-20T19:06:44.888Z,3.43
2023-02-20T19:09:24.314Z,2.80
2023-02-20T19:11:57.195Z,2.50
2023-02-20T19:14:28.832Z,3.33
2023-02-20T19:16:59.671Z,2.77
2023-02-20T19:19:34.575Z,3.23
2023-02-20T19:22:02.290Z,4.37
2023-02-20T19:24:29.776Z,3.50
2023-02-20T19:26:57.530Z,3.27
2023-02-20T19:29:25.311Z,3.30
2023-02-20T19:31:52.953Z,3.33
2023-02-20T19:34:20.745Z,3.87
2023-02-20T19:36:48.283Z,3.10
2023-02-20T19:39:16.285Z,3.83
2023-02-20T19:41:43.875Z,2.93
2023-02-20T19:44:16.383Z,2.87
2023-02-20T19:46:44.411Z,3.40
2023-02-20T19:49:13.099Z,4.70
2023-02-20T19:51:48.161Z,3.37
2023-02-20T19:54:18.430Z,4.30
2023-02-20T19:57:01.737Z,3.43
2023-02-20T19:59:29.964Z,2.30
2023-02-20T20:02:00.695Z,4.17
2023-02-20T20:04:32.201Z,2.17
2023-02-20T20:07:02.716Z,2.20
2023-02-20T20:09:36.674Z,2.00
2023-02-20T20:12:30.361Z,2.10
2023-02-20T20:14:57.906Z,3.60
2023-02-20T20:17:25.608Z,3.63
2023-02-20T20:20:01.178Z,2.63
2023-02-20T20:22:30.069Z,1.43
2023-02-20T20:24:58.263Z,2.50
2023-02-20T20:27:25.740Z,2.50
2023-02-20T20:29:53.249Z,3.43
2023-02-20T20:32:22.126Z,2.40
2023-02-20T20:34:55.799Z,1.67
2023-02-20T20:37:25.773Z,2.17
2023-02-20T20:39:54.845Z,2.13
2023-02-20T20:42:25.345Z,1.60
2023-02-20T20:44:58.827Z,3.73
2023-02-20T20:47:30.873Z,2.30
2023-02-20T20:49:59.639Z,3.20
2023-02-20T20:52:28.152Z,1.73
2023-02-20T20:54:58.369Z,1.87
2023-02-20T20:57:30.212Z,2.20
2023-02-20T21:00:00.738Z,2.07
2023-02-20T21:02:29.196Z,1.77
2023-02-20T21:05:09.296Z,1.77
2023-02-20T21:07:38.795Z,2.23
2023-02-20T21:10:07.470Z,2.00
2023-02-20T21:12:35.048Z,2.57
2023-02-20T21:15:03.263Z,1.60
2023-02-20T21:17:30.794Z,2.17
2023-02-20T21:19:58.939Z,3.70
2023-02-20T21:22:26.806Z,2.00
2023-02-20T21:24:54.239Z,2.90
2023-02-20T21:27:21.661Z,2.03
2023-02-20T21:29:49.047Z,1.90
2023-02-20T21:32:16.653Z,1.57
2023-02-20T21:34:46.531Z,1.77
2023-02-20T21:37:14.165Z,2.07
2023-02-20T21:39:42.528Z,1.67
2023-02-20T21:42:30.538Z,1.63
2023-02-20T21:44:58.028Z,2.07
2023-02-20T21:47:25.662Z,1.43
2023-02-20T21:49:53.211Z,1.90
2023-02-20T21:52:21.601Z,2.20
2023-02-20T21:54:51.510Z,1.67
2023-02-20T21:57:19.462Z,1.77
2023-02-20T21:59:46.823Z,1.77
2023-02-20T22:02:21.583Z,1.23
2023-02-20T22:04:49.538Z,2.57
2023-02-20T22:07:36.451Z,2.57
2023-02-20T22:10:23.095Z,2.13
2023-02-20T22:13:09.253Z,2.23
2023-02-20T22:15:55.604Z,1.80
2023-02-20T22:18:41.680Z,2.17
2023-02-20T22:21:27.957Z,1.70
2023-02-20T22:24:14.196Z,1.63
2023-02-20T22:27:00.331Z,2.20
2023-02-20T22:29:46.562Z,2.40
2023-02-20T22:32:32.676Z,1.30
2023-02-20T22:35:18.939Z,2.03
2023-02-20T22:38:05.644Z,2.23
2023-02-20T22:40:51.594Z,1.33
2023-02-20T22:43:37.859Z,1.70
2023-02-20T22:46:25.499Z,1.50
2023-02-20T22:49:13.592Z,2.50
2023-02-20T22:51:59.685Z,2.77
2023-02-20T22:54:50.530Z,1.60
2023-02-20T22:57:45.127Z,2.87
2023-02-20T23:00:33.446Z,2.20
2023-02-20T23:03:19.634Z,2.13
2023-02-20T23:06:16.854Z,2.10
2023-02-20T23:09:04.666Z,2.37
2023-02-20T23:11:57.722Z,2.47
2023-02-20T23:14:44.378Z,2.30
2023-02-20T23:17:36.990Z,1.83
2023-02-20T23:20:37.810Z,2.63
2023-02-20T23:23:25.910Z,3.43
2023-02-20T23:26:13.200Z,2.10
2023-02-20T23:28:59.331Z,2.33
2023-02-20T23:31:59.459Z,2.03
2023-02-20T23:34:48.001Z,2.00
2023-02-20T23:37:34.793Z,1.60
2023-02-20T23:40:27.397Z,2.17
2023-02-20T23:43:25.699Z,4.10
2023-02-20T23:46:12.756Z,1.80
2023-02-20T23:48:58.817Z,1.97
2023-02-20T23:51:44.563Z,2.33
2023-02-20T23:54:30.698Z,1.70
2023-02-20T23:57:16.682Z,2.43
